Time;durP1;ratioP1;P1;durP2;ratioP2;P2;SDS_P1;SDS_P2;PMS_P1;PMS_P2;Temp;Humidity;BMP_temperature;BMP_pressure;BME280_temperature;BME280_humidity;BME280_pressure;Samples;Min_cycle;Max_cycle;Signal;HPM_P1;HPM_P2
2023/04/23 00:00:30;;;;;;;54.92;30.90;;;7.80;99.90;;;;;;5045240;28;20053;-73
2023/04/23 00:02:58;;;;;;;52.03;32.45;;;7.80;99.90;;;;;;5027861;28;20043;-73
2023/04/23 00:05:28;;;;;;;47.38;29.15;;;7.80;99.90;;;;;;5047120;28;20048;-73
2023/04/23 00:07:59;;;;;;;42.50;26.90;;;7.70;99.90;;;;;;5047369;28;20033;-74
2023/04/23 00:10:27;;;;;;;50.45;31.55;;;7.60;99.90;;;;;;5047275;28;20045;-73
2023/04/23 00:12:55;;;;;;;55.63;35.20;;;7.60;99.90;;;;;;5050538;28;20505;-74
2023/04/23 00:15:23;;;;;;;56.05;33.47;;;7.60;99.90;;;;;;5050118;28;20041;-73
2023/04/23 00:17:51;;;;;;;53.58;31.52;;;7.60;99.90;;;;;;5050383;28;20044;-74
2023/04/23 00:20:18;;;;;;;51.72;31.33;;;7.60;99.90;;;;;;5051482;28;20072;-74
2023/04/23 00:22:46;;;;;;;43.08;25.35;;;7.60;99.90;;;;;;5053155;28;20060;-74
2023/04/23 00:25:14;;;;;;;39.50;25.20;;;7.60;99.90;;;;;;5051560;28;20529;-75
2023/04/23 00:27:42;;;;;;;41.42;25.50;;;7.50;99.90;;;;;;5058188;28;20049;-75
2023/04/23 00:30:10;;;;;;;39.53;26.95;;;7.50;99.90;;;;;;5064726;28;20044;-74
2023/04/23 00:32:38;;;;;;;46.20;28.48;;;7.50;99.90;;;;;;5047860;28;20041;-76
2023/04/23 00:35:07;;;;;;;43.33;25.77;;;7.50;99.90;;;;;;5063249;28;20484;-75
2023/04/23 00:37:34;;;;;;;40.78;26.38;;;7.50;99.90;;;;;;5041530;28;20056;-74
2023/04/23 00:40:03;;;;;;;38.28;23.08;;;7.50;99.90;;;;;;5039102;28;20533;-74
2023/04/23 00:42:32;;;;;;;40.75;25.77;;;7.50;99.90;;;;;;5024359;28;20225;-73
2023/04/23 00:45:01;;;;;;;41.15;26.25;;;7.50;99.90;;;;;;5036533;28;20041;-73
2023/04/23 00:47:29;;;;;;;37.35;23.38;;;7.50;99.90;;;;;;5051796;28;20037;-73
2023/04/23 00:49:58;;;;;;;41.30;24.13;;;7.50;99.90;;;;;;5042989;28;20057;-74
2023/04/23 00:52:25;;;;;;;37.13;24.42;;;7.50;99.90;;;;;;5061349;28;20428;-73
2023/04/23 00:54:53;;;;;;;40.08;24.77;;;7.50;99.90;;;;;;5052811;28;20070;-73
2023/04/23 00:57:20;;;;;;;41.40;23.73;;;7.50;99.90;;;;;;5031811;28;20041;-74
2023/04/23 00:59:50;;;;;;;41.55;24.50;;;7.50;99.90;;;;;;5027383;28;20120;-74
2023/04/23 01:02:18;;;;;;;40.92;25.70;;;7.50;99.90;;;;;;5030123;28;20048;-73
2023/04/23 01:04:45;;;;;;;45.45;29.70;;;7.50;99.90;;;;;;5030899;28;20128;-74
2023/04/23 01:07:13;;;;;;;39.95;27.67;;;7.40;99.90;;;;;;5030193;28;20518;-73
2023/04/23 01:09:41;;;;;;;41.50;27.25;;;7.30;99.90;;;;;;5041648;28;20079;-74
2023/04/23 01:12:10;;;;;;;41.42;27.15;;;7.30;99.90;;;;;;5032108;28;20049;-74
2023/04/23 01:14:38;;;;;;;46.50;30.98;;;7.20;99.90;;;;;;5034265;28;20486;-75
2023/04/23 01:17:08;;;;;;;54.70;33.80;;;7.20;99.90;;;;;;5033060;28;20057;-75
2023/04/23 01:19:36;;;;;;;47.78;31.77;;;7.20;99.90;;;;;;5032652;28;20184;-74
2023/04/23 01:22:04;;;;;;;40.55;25.33;;;7.10;99.90;;;;;;5036503;28;20037;-74
2023/04/23 01:24:33;;;;;;;40.35;27.33;;;7.10;99.90;;;;;;5038256;28;20064;-75
2023/04/23 01:27:01;;;;;;;38.10;27.13;;;7.10;99.90;;;;;;5039402;28;20068;-73
2023/04/23 01:29:30;;;;;;;36.22;23.00;;;7.10;99.90;;;;;;5032896;28;20047;-73
2023/04/23 01:31:59;;;;;;;34.75;21.50;;;7.00;99.90;;;;;;5033055;28;20384;-74
2023/04/23 01:34:26;;;;;;;32.22;20.25;;;7.00;99.90;;;;;;5031029;28;20361;-75
2023/04/23 01:36:55;;;;;;;29.50;18.58;;;7.00;99.90;;;;;;5034526;28;20042;-73
2023/04/23 01:39:23;;;;;;;33.85;20.55;;;7.00;99.90;;;;;;5028727;28;20033;-73
2023/04/23 01:41:53;;;;;;;38.17;23.52;;;7.00;99.90;;;;;;5011129;28;20068;-73
2023/04/23 01:44:21;;;;;;;36.75;23.60;;;6.90;99.90;;;;;;5029297;28;20052;-73
2023/04/23 01:46:48;;;;;;;42.05;25.50;;;6.90;99.90;;;;;;5031909;28;20040;-74
2023/04/23 01:49:16;;;;;;;39.72;26.02;;;6.90;99.90;;;;;;5049874;28;20206;-74
2023/04/23 01:51:44;;;;;;;38.28;24.15;;;6.80;99.90;;;;;;5029595;28;20044;-72
2023/04/23 01:54:11;;;;;;;31.13;19.52;;;6.80;99.90;;;;;;5029422;28;20105;-74
2023/04/23 01:56:39;;;;;;;27.00;19.42;;;6.70;99.90;;;;;;5028007;28;20098;-75
2023/04/23 01:59:08;;;;;;;32.55;21.65;;;6.70;99.90;;;;;;5027290;28;20045;-73
2023/04/23 02:01:43;;;;;;;40.85;24.17;;;6.60;99.90;;;;;;5011466;28;20045;-74
2023/04/23 02:04:13;;;;;;;37.78;23.58;;;6.70;99.90;;;;;;5043491;28;20049;-74
2023/04/23 02:06:40;;;;;;;37.65;23.83;;;6.80;99.90;;;;;;5030665;28;20041;-73
2023/04/23 02:09:08;;;;;;;31.60;21.05;;;6.80;99.90;;;;;;5029451;28;20618;-73
2023/04/23 02:11:35;;;;;;;34.25;23.15;;;6.70;99.90;;;;;;5031285;28;20140;-73
2023/04/23 02:14:04;;;;;;;41.13;24.50;;;6.70;99.90;;;;;;5047935;28;20037;-74
2023/04/23 02:16:33;;;;;;;39.30;25.10;;;6.70;99.90;;;;;;5048684;28;20071;-74
2023/04/23 02:19:01;;;;;;;38.92;23.27;;;6.60;99.90;;;;;;5047238;28;20053;-73
2023/04/23 02:21:29;;;;;;;35.90;23.45;;;6.60;99.90;;;;;;5047388;28;20086;-73
2023/04/23 02:23:57;;;;;;;40.08;23.15;;;6.60;99.90;;;;;;5046934;28;20045;-74
2023/04/23 02:26:24;;;;;;;27.73;17.77;;;6.60;99.90;;;;;;5029891;28;20046;-74
2023/04/23 02:28:52;;;;;;;30.52;18.92;;;6.50;99.90;;;;;;5028795;28;20128;-74
2023/04/23 02:31:19;;;;;;;30.65;20.50;;;6.60;99.90;;;;;;5027387;28;20152;-73
2023/04/23 02:33:48;;;;;;;30.60;20.33;;;6.50;99.90;;;;;;5038760;28;20472;-73
2023/04/23 02:36:16;;;;;;;29.27;20.20;;;6.40;99.90;;;;;;5047979;28;20720;-74
2023/04/23 02:38:46;;;;;;;28.10;18.63;;;6.40;99.90;;;;;;5029104;28;20388;-74
2023/04/23 02:41:13;;;;;;;31.38;20.33;;;6.40;99.90;;;;;;5048215;28;20080;-75
2023/04/23 02:43:41;;;;;;;34.20;20.13;;;6.40;99.90;;;;;;5013200;28;20068;-76
2023/04/23 02:46:08;;;;;;;32.08;18.45;;;6.40;99.90;;;;;;5031957;28;20048;-73
2023/04/23 02:48:38;;;;;;;30.83;19.73;;;6.40;99.90;;;;;;5038237;28;20049;-74
2023/04/23 02:51:09;;;;;;;31.35;18.85;;;6.40;99.90;;;;;;5028462;28;20052;-74
2023/04/23 02:53:37;;;;;;;25.73;17.27;;;6.40;99.90;;;;;;5029413;28;20101;-74
2023/04/23 02:56:06;;;;;;;26.55;17.52;;;6.30;99.90;;;;;;5047914;28;20032;-74
2023/04/23 02:58:34;;;;;;;35.95;20.55;;;6.30;99.90;;;;;;5029240;28;20033;-73
2023/04/23 03:01:03;;;;;;;35.90;19.55;;;6.30;99.90;;;;;;5024844;28;20045;-74
2023/04/23 03:03:32;;;;;;;29.70;20.10;;;6.30;99.90;;;;;;5019126;28;20095;-73
2023/04/23 03:06:02;;;;;;;30.90;20.27;;;6.30;99.90;;;;;;5010112;28;20045;-73
2023/04/23 03:08:31;;;;;;;35.58;21.17;;;6.30;99.90;;;;;;5029046;28;20050;-74
2023/04/23 03:10:59;;;;;;;36.55;23.35;;;6.20;99.90;;;;;;5046638;28;20154;-73
2023/04/23 03:13:27;;;;;;;36.47;26.05;;;6.10;99.90;;;;;;5028700;28;20049;-75
2023/04/23 03:15:56;;;;;;;33.67;23.40;;;6.10;99.90;;;;;;5030650;28;20045;-74
2023/04/23 03:18:23;;;;;;;33.58;22.67;;;6.10;99.90;;;;;;5026844;28;20068;-74
2023/04/23 03:20:53;;;;;;;31.95;21.88;;;6.10;99.90;;;;;;5028387;28;20516;-74
2023/04/23 03:23:21;;;;;;;31.52;21.20;;;6.00;99.90;;;;;;5029938;28;20040;-73
2023/04/23 03:25:50;;;;;;;26.88;17.73;;;6.00;99.90;;;;;;5027405;28;20052;-74
2023/04/23 03:28:17;;;;;;;28.35;19.55;;;6.00;99.90;;;;;;5028925;28;20543;-74
2023/04/23 03:30:45;;;;;;;30.10;20.00;;;5.90;99.90;;;;;;5035115;28;20033;-74
2023/04/23 03:33:13;;;;;;;30.80;21.85;;;5.90;99.90;;;;;;5021487;28;20040;-73
2023/04/23 03:35:41;;;;;;;28.73;20.55;;;5.90;99.90;;;;;;5012940;28;20037;-74
2023/04/23 03:38:13;;;;;;;28.55;19.83;;;5.80;99.90;;;;;;5046802;28;20036;-74
2023/04/23 03:40:41;;;;;;;26.92;19.85;;;5.80;99.90;;;;;;5028625;28;20037;-74
2023/04/23 03:43:12;;;;;;;31.33;20.52;;;5.80;99.90;;;;;;5025301;28;20059;-74
2023/04/23 03:45:59;;;;;;;31.52;20.33;;;5.80;99.90;;;;;;5028554;28;20056;-75
2023/04/23 03:48:30;;;;;;;30.88;19.95;;;5.90;99.90;;;;;;5013472;28;20041;-74
2023/04/23 03:50:59;;;;;;;39.15;21.45;;;5.90;99.90;;;;;;5012692;28;20041;-73
2023/04/23 03:53:42;;;;;;;30.40;20.38;;;5.80;99.90;;;;;;5037180;28;20072;-76
2023/04/23 03:56:42;;;;;;;40.55;22.23;;;5.90;99.90;;;;;;5048568;28;20128;-73
2023/04/23 03:59:24;;;;;;;47.38;30.30;;;5.80;99.90;;;;;;5032159;28;20044;-74
2023/04/23 04:01:54;;;;;;;35.83;24.05;;;5.80;99.90;;;;;;5057082;28;20465;-74
2023/04/23 04:04:22;;;;;;;33.42;22.48;;;5.70;99.90;;;;;;5037900;28;20100;-74
2023/04/23 04:06:51;;;;;;;36.03;21.98;;;5.70;99.90;;;;;;5034785;28;20052;-73
2023/04/23 04:09:18;;;;;;;33.08;19.25;;;5.70;99.90;;;;;;5051587;28;20033;-75
2023/04/23 04:11:46;;;;;;;29.73;19.27;;;5.80;99.90;;;;;;5050365;28;20047;-73
2023/04/23 04:14:13;;;;;;;28.15;18.40;;;5.80;99.90;;;;;;5051274;28;20135;-74
2023/04/23 04:16:43;;;;;;;29.13;18.85;;;6.10;99.90;;;;;;5050923;28;20057;-74
2023/04/23 04:19:10;;;;;;;45.85;26.80;;;6.50;99.90;;;;;;5050281;28;20049;-74
2023/04/23 04:21:38;;;;;;;29.10;18.40;;;6.90;99.90;;;;;;5050178;28;20130;-73
2023/04/23 04:24:05;;;;;;;31.27;18.73;;;7.10;99.90;;;;;;5049844;28;20041;-73
2023/04/23 04:26:34;;;;;;;24.85;17.08;;;7.20;99.90;;;;;;5049752;28;20036;-73
2023/04/23 04:29:02;;;;;;;27.60;16.73;;;7.30;99.90;;;;;;5050498;28;20128;-74
2023/04/23 04:31:29;;;;;;;24.85;16.00;;;7.30;99.90;;;;;;5050869;28;20045;-75
2023/04/23 04:33:59;;;;;;;26.63;16.13;;;7.30;99.90;;;;;;5049071;28;20037;-73
2023/04/23 04:36:27;;;;;;;23.13;16.98;;;7.40;99.90;;;;;;5050352;28;20049;-75
2023/04/23 04:38:57;;;;;;;25.42;16.40;;;7.40;99.90;;;;;;5049977;28;20499;-74
2023/04/23 04:41:26;;;;;;;28.13;17.73;;;7.50;99.90;;;;;;5049524;28;20679;-74
2023/04/23 04:43:54;;;;;;;26.83;18.52;;;7.60;99.90;;;;;;5032720;28;20037;-75
2023/04/23 04:46:22;;;;;;;36.47;21.50;;;7.70;99.90;;;;;;5050565;28;20041;-73
2023/04/23 04:48:49;;;;;;;30.40;21.02;;;7.60;99.90;;;;;;5049888;28;20049;-75
2023/04/23 04:51:18;;;;;;;27.90;18.98;;;7.60;99.90;;;;;;5030254;28;20369;-75
2023/04/23 04:53:46;;;;;;;29.85;18.95;;;7.60;99.90;;;;;;5049520;28;20041;-73
2023/04/23 04:56:13;;;;;;;28.80;18.40;;;7.70;99.90;;;;;;5049491;28;20134;-73
2023/04/23 04:58:41;;;;;;;29.15;18.92;;;7.80;99.90;;;;;;5048690;28;20049;-73
2023/04/23 05:01:09;;;;;;;30.27;18.20;;;7.70;99.90;;;;;;5048526;28;20037;-73
2023/04/23 05:03:38;;;;;;;27.95;17.85;;;7.70;99.90;;;;;;5049870;28;20674;-74
2023/04/23 05:06:05;;;;;;;26.00;17.70;;;7.80;99.90;;;;;;5049764;28;20098;-74
2023/04/23 05:08:34;;;;;;;26.63;17.10;;;7.90;99.90;;;;;;5049714;28;20041;-74
2023/04/23 05:11:02;;;;;;;28.45;17.48;;;8.00;99.90;;;;;;5048733;28;20055;-74
2023/04/23 05:13:30;;;;;;;29.48;17.67;;;8.20;99.90;;;;;;5048583;28;20037;-74
2023/04/23 05:15:57;;;;;;;22.60;16.65;;;8.50;99.90;;;;;;5039295;28;20124;-74
2023/04/23 05:18:25;;;;;;;26.58;17.15;;;8.70;99.90;;;;;;5033636;28;20397;-74
2023/04/23 05:20:52;;;;;;;22.77;16.23;;;8.90;99.90;;;;;;5033005;28;20068;-75
2023/04/23 05:23:19;;;;;;;23.33;16.65;;;9.10;99.90;;;;;;5050954;28;20101;-74
2023/04/23 05:25:50;;;;;;;20.92;14.23;;;9.50;99.90;;;;;;5050103;28;20489;-73
2023/04/23 05:28:18;;;;;;;20.20;14.43;;;9.70;99.90;;;;;;5049550;28;20517;-73
2023/04/23 05:30:45;;;;;;;23.92;14.65;;;10.00;99.90;;;;;;5048900;28;20124;-73
2023/04/23 05:33:13;;;;;;;27.88;16.55;;;10.20;99.90;;;;;;5048594;28;21988;-73
2023/04/23 05:35:40;;;;;;;28.35;16.75;;;10.50;99.90;;;;;;5049339;28;20052;-74
2023/04/23 05:38:07;;;;;;;26.88;17.83;;;10.70;99.90;;;;;;5049628;28;20090;-74
2023/04/23 05:40:35;;;;;;;29.35;16.42;;;10.80;99.90;;;;;;5047300;28;20136;-74
2023/04/23 05:43:04;;;;;;;28.17;16.55;;;11.10;99.90;;;;;;5048361;28;20488;-74
2023/04/23 05:45:32;;;;;;;27.92;17.13;;;11.40;99.90;;;;;;5030538;28;20401;-73
2023/04/23 05:48:00;;;;;;;25.15;16.52;;;11.70;99.90;;;;;;5049387;28;20048;-76
2023/04/23 05:50:27;;;;;;;24.15;15.25;;;11.70;99.90;;;;;;5049439;28;20076;-73
2023/04/23 05:52:54;;;;;;;20.80;14.63;;;11.80;99.90;;;;;;5048958;28;20045;-75
2023/04/23 05:55:22;;;;;;;22.52;14.23;;;12.00;99.90;;;;;;5049221;28;20052;-74
2023/04/23 05:57:50;;;;;;;24.63;14.80;;;12.30;99.90;;;;;;5050468;28;20094;-74
2023/04/23 06:00:19;;;;;;;21.35;14.80;;;12.70;99.90;;;;;;5031534;28;20400;-73
2023/04/23 06:02:47;;;;;;;24.98;15.23;;;13.10;99.90;;;;;;5049959;28;20045;-74
2023/04/23 06:05:15;;;;;;;22.27;14.88;;;13.40;99.90;;;;;;5056252;28;20107;-75
2023/04/23 06:07:42;;;;;;;22.65;14.20;;;13.70;99.90;;;;;;5049816;28;20128;-74
2023/04/23 06:10:11;;;;;;;24.00;14.55;;;13.90;99.90;;;;;;5048435;28;20486;-74
2023/04/23 06:12:40;;;;;;;24.55;14.07;;;14.30;99.90;;;;;;5048595;28;20053;-73
2023/04/23 06:15:10;;;;;;;18.17;11.82;;;14.40;99.90;;;;;;5048455;28;20049;-73
2023/04/23 06:17:39;;;;;;;23.80;12.77;;;14.70;99.90;;;;;;5047729;28;20044;-73
2023/04/23 06:20:09;;;;;;;15.93;10.90;;;14.90;96.00;;;;;;5049124;28;20041;-73
2023/04/23 06:22:37;;;;;;;16.25;10.73;;;14.90;93.70;;;;;;5048774;28;20044;-74
2023/04/23 06:25:05;;;;;;;17.27;9.85;;;15.20;91.90;;;;;;5045861;28;20049;-74
2023/04/23 06:27:32;;;;;;;14.65;9.30;;;15.20;90.50;;;;;;5048709;28;20071;-74
2023/04/23 06:30:07;;;;;;;13.50;8.40;;;15.40;88.70;;;;;;5030245;28;20131;-73
2023/04/23 06:32:36;;;;;;;15.18;9.18;;;15.60;86.80;;;;;;5029317;28;20072;-73
2023/04/23 06:35:06;;;;;;;13.82;8.60;;;15.70;82.90;;;;;;5048929;28;20048;-72
2023/04/23 06:37:33;;;;;;;15.00;8.90;;;15.90;82.10;;;;;;5047292;28;20071;-73
2023/04/23 06:40:01;;;;;;;13.23;7.47;;;16.00;80.70;;;;;;5047921;28;20643;-73
2023/04/23 06:42:28;;;;;;;12.68;7.47;;;16.30;79.50;;;;;;5048002;28;20091;-74
2023/04/23 06:45:14;;;;;;;12.10;7.85;;;16.50;76.90;;;;;;5029110;28;20033;-73
2023/04/23 06:47:41;;;;;;;12.43;8.13;;;16.80;75.60;;;;;;5049517;28;20091;-73
2023/04/23 06:50:11;;;;;;;16.08;10.52;;;17.00;74.10;;;;;;5050033;28;20041;-73
2023/04/23 06:52:38;;;;;;;22.13;9.80;;;17.20;72.90;;;;;;5047045;28;20432;-74
2023/04/23 06:55:08;;;;;;;13.25;8.80;;;17.30;72.30;;;;;;5047246;28;20048;-73
2023/04/23 06:57:36;;;;;;;12.15;7.45;;;17.50;71.20;;;;;;5047620;28;20045;-74
2023/04/23 07:00:05;;;;;;;13.45;8.27;;;17.70;68.20;;;;;;5028901;28;20044;-73
2023/04/23 07:02:37;;;;;;;11.98;8.85;;;17.80;66.50;;;;;;5026456;28;20033;-73
2023/04/23 07:05:05;;;;;;;13.60;7.85;;;17.90;65.00;;;;;;5028784;28;20044;-73
2023/04/23 07:07:39;;;;;;;11.52;7.75;;;17.90;63.80;;;;;;5028422;28;20128;-73
2023/04/23 07:10:09;;;;;;;11.02;7.65;;;18.00;63.00;;;;;;5043424;28;20044;-74
2023/04/23 07:12:37;;;;;;;15.15;8.07;;;18.30;61.70;;;;;;5029928;28;20162;-73
2023/04/23 07:15:05;;;;;;;16.55;8.40;;;18.50;60.60;;;;;;5043427;28;20482;-73
2023/04/23 07:17:33;;;;;;;15.05;7.97;;;18.60;59.40;;;;;;5028799;28;20452;-72
2023/04/23 07:20:03;;;;;;;12.52;8.13;;;18.80;57.80;;;;;;5039501;28;20045;-72
2023/04/23 07:22:31;;;;;;;10.35;7.40;;;18.90;56.80;;;;;;5058431;28;20037;-74
2023/04/23 07:25:00;;;;;;;15.73;7.53;;;18.90;55.90;;;;;;5048455;28;20044;-72
2023/04/23 07:27:27;;;;;;;9.63;5.80;;;19.10;54.30;;;;;;5045687;28;20049;-73
2023/04/23 07:29:55;;;;;;;10.32;5.90;;;19.10;53.50;;;;;;5048435;28;20045;-73
2023/04/23 07:32:26;;;;;;;13.18;6.43;;;19.20;52.70;;;;;;5047709;28;20033;-72
2023/04/23 07:34:54;;;;;;;12.32;6.05;;;19.10;52.30;;;;;;5050552;28;20064;-72
2023/04/23 07:37:22;;;;;;;11.93;5.40;;;19.20;51.80;;;;;;5051065;28;20049;-72
2023/04/23 07:39:50;;;;;;;9.93;5.47;;;19.30;51.60;;;;;;5050492;28;20289;-73
2023/04/23 07:42:19;;;;;;;9.52;4.95;;;19.20;50.20;;;;;;5047390;28;20094;-72
2023/04/23 07:44:46;;;;;;;9.82;5.75;;;19.10;50.60;;;;;;5047190;28;20686;-72
2023/04/23 07:47:13;;;;;;;14.00;6.68;;;19.30;51.00;;;;;;5048146;28;20167;-74
2023/04/23 07:49:41;;;;;;;9.70;6.20;;;19.50;51.70;;;;;;5047027;28;20048;-75
2023/04/23 07:52:08;;;;;;;12.63;6.20;;;19.70;50.60;;;;;;5046109;28;20053;-73
2023/04/23 07:54:36;;;;;;;9.95;6.22;;;19.90;48.40;;;;;;5043126;28;20085;-72
2023/04/23 07:57:03;;;;;;;13.00;7.35;;;20.10;47.30;;;;;;5031878;28;20052;-73
2023/04/23 07:59:32;;;;;;;10.70;6.15;;;20.30;47.80;;;;;;5027588;28;20042;-73
2023/04/23 08:01:59;;;;;;;6.53;5.15;;;20.40;47.60;;;;;;5046684;28;20116;-73
2023/04/23 08:04:27;;;;;;;9.65;6.15;;;20.60;46.80;;;;;;5047519;28;20041;-73
2023/04/23 08:06:55;;;;;;;10.02;5.45;;;20.70;45.70;;;;;;5047166;28;20136;-72
2023/04/23 08:09:22;;;;;;;8.32;5.82;;;20.70;45.60;;;;;;5047742;28;20176;-73
2023/04/23 08:11:50;;;;;;;10.35;6.60;;;20.40;45.40;;;;;;5046944;28;20136;-74
2023/04/23 08:14:18;;;;;;;11.38;6.10;;;20.40;46.30;;;;;;5048004;28;20048;-73
2023/04/23 08:16:47;;;;;;;12.55;6.47;;;20.40;46.70;;;;;;5047580;28;20045;-74
2023/04/23 08:19:15;;;;;;;14.82;7.53;;;20.40;47.10;;;;;;5030569;28;20053;-73
2023/04/23 08:21:43;;;;;;;12.23;7.43;;;20.60;47.00;;;;;;5026265;28;20046;-73
2023/04/23 08:24:11;;;;;;;12.80;6.60;;;20.80;46.90;;;;;;5034566;28;20045;-73
2023/04/23 08:26:39;;;;;;;13.73;7.15;;;21.00;46.70;;;;;;5047844;28;20048;-74
2023/04/23 08:29:06;;;;;;;9.02;6.38;;;20.90;46.00;;;;;;5028490;28;20095;-73
2023/04/23 08:31:34;;;;;;;11.18;6.82;;;20.90;45.40;;;;;;5046789;28;20556;-74
2023/04/23 08:34:04;;;;;;;11.38;6.60;;;21.00;44.80;;;;;;5035954;28;20037;-75
2023/04/23 08:36:31;;;;;;;13.88;6.95;;;21.10;44.60;;;;;;5047077;28;20053;-74
2023/04/23 08:38:59;;;;;;;12.68;6.10;;;21.20;44.20;;;;;;5034527;28;20137;-73
2023/04/23 08:41:34;;;;;;;13.68;7.47;;;21.30;43.30;;;;;;5038140;28;20076;-75
2023/04/23 08:44:08;;;;;;;14.27;7.90;;;21.40;43.30;;;;;;5056648;28;20041;-75
2023/04/23 08:46:39;;;;;;;15.80;9.90;;;21.60;43.30;;;;;;5055243;28;20071;-74
2023/04/23 08:49:09;;;;;;;21.40;11.75;;;21.80;42.80;;;;;;5055676;28;20119;-74
2023/04/23 08:51:40;;;;;;;15.35;6.82;;;21.80;42.20;;;;;;5053916;28;20041;-73
2023/04/23 08:54:15;;;;;;;16.80;7.38;;;21.90;40.70;;;;;;5053012;28;20048;-75
2023/04/23 08:56:42;;;;;;;14.50;8.30;;;21.80;39.00;;;;;;5055782;28;20628;-75
2023/04/23 08:59:11;;;;;;;13.77;8.23;;;21.80;39.40;;;;;;5051293;28;20052;-74
2023/04/23 09:01:38;;;;;;;12.50;7.05;;;21.90;39.40;;;;;;5049434;28;20059;-75
2023/04/23 09:04:08;;;;;;;15.15;7.15;;;22.00;40.00;;;;;;5032400;28;20048;-73
2023/04/23 09:06:36;;;;;;;13.52;7.78;;;22.10;40.40;;;;;;5050680;28;20037;-74
2023/04/23 09:09:06;;;;;;;11.13;7.30;;;22.20;40.10;;;;;;5031407;28;20055;-75
2023/04/23 09:11:37;;;;;;;13.25;7.60;;;22.20;39.30;;;;;;5049182;28;20048;-75
2023/04/23 09:14:06;;;;;;;8.70;6.15;;;22.40;37.70;;;;;;5033370;28;20052;-77
2023/04/23 09:16:33;;;;;;;9.27;3.83;;;22.60;35.70;;;;;;5031918;28;20555;-76
2023/04/23 09:19:03;;;;;;;9.50;5.00;;;22.50;31.70;;;;;;5043870;28;20049;-73
2023/04/23 09:21:32;;;;;;;9.43;4.63;;;22.40;32.20;;;;;;5049911;28;20057;-74
2023/04/23 09:24:00;;;;;;;8.95;3.92;;;22.50;32.10;;;;;;5051432;28;20051;-74
2023/04/23 09:26:27;;;;;;;8.02;4.20;;;22.40;31.10;;;;;;5053930;28;20041;-73
2023/04/23 09:28:55;;;;;;;8.02;5.10;;;22.40;32.50;;;;;;5034644;28;20053;-75
2023/04/23 09:31:23;;;;;;;7.00;4.60;;;22.50;33.70;;;;;;5053197;28;20057;-74
2023/04/23 09:33:54;;;;;;;6.50;4.65;;;22.50;33.70;;;;;;5050410;28;20041;-72
2023/04/23 09:36:23;;;;;;;9.38;5.60;;;22.40;33.80;;;;;;5049487;28;20037;-73
2023/04/23 09:38:56;;;;;;;10.40;4.53;;;22.70;34.70;;;;;;5048628;28;20045;-74
2023/04/23 09:41:25;;;;;;;9.13;5.72;;;22.70;33.10;;;;;;5049916;28;20052;-73
2023/04/23 09:43:54;;;;;;;8.98;4.93;;;22.90;33.40;;;;;;5049839;28;20041;-73
2023/04/23 09:46:34;;;;;;;13.73;4.88;;;23.10;33.20;;;;;;5053914;28;20057;-73
2023/04/23 09:49:02;;;;;;;10.20;4.10;;;23.20;32.10;;;;;;5064524;28;20126;-75
2023/04/23 09:51:30;;;;;;;7.60;4.00;;;23.00;32.10;;;;;;5062214;28;20128;-73
2023/04/23 09:54:02;;;;;;;7.85;4.22;;;22.90;31.80;;;;;;5060696;28;20075;-73
2023/04/23 09:56:31;;;;;;;10.30;5.40;;;23.10;32.50;;;;;;5058927;28;20057;-74
2023/04/23 09:58:58;;;;;;;8.75;3.70;;;23.20;32.50;;;;;;5055765;28;20052;-73
2023/04/23 10:01:30;;;;;;;7.13;3.92;;;23.40;31.60;;;;;;5050779;28;20132;-73
2023/04/23 10:03:58;;;;;;;6.35;3.80;;;23.30;32.40;;;;;;5051114;28;20037;-73
2023/04/23 10:06:30;;;;;;;8.85;4.32;;;23.30;32.20;;;;;;5052876;28;20041;-72
2023/04/23 10:08:59;;;;;;;8.63;5.53;;;23.20;33.20;;;;;;5040997;28;20075;-73
2023/04/23 10:11:28;;;;;;;7.43;4.15;;;23.40;33.90;;;;;;5047952;28;20528;-74
2023/04/23 10:13:55;;;;;;;8.52;5.18;;;23.60;33.20;;;;;;5029563;28;20049;-73
2023/04/23 10:16:23;;;;;;;7.88;4.93;;;23.70;32.20;;;;;;5029399;28;20053;-73
2023/04/23 10:18:54;;;;;;;6.82;3.42;;;23.80;32.30;;;;;;5041779;28;20053;-74
2023/04/23 10:21:27;;;;;;;7.25;3.22;;;23.80;31.40;;;;;;5048781;28;20094;-73
2023/04/23 10:23:57;;;;;;;5.35;3.17;;;23.70;31.80;;;;;;5039396;28;20053;-73
2023/04/23 10:26:27;;;;;;;5.40;3.65;;;23.60;31.70;;;;;;5029466;28;20519;-73
2023/04/23 10:28:56;;;;;;;9.88;5.00;;;23.50;32.20;;;;;;5027359;28;20049;-74
2023/04/23 10:31:25;;;;;;;11.88;5.53;;;23.60;32.80;;;;;;5028031;28;20132;-73
2023/04/23 10:33:55;;;;;;;8.82;5.78;;;23.80;32.90;;;;;;5041783;28;20049;-72
2023/04/23 10:36:24;;;;;;;10.93;6.28;;;23.90;32.40;;;;;;5048947;28;20219;-73
2023/04/23 10:38:55;;;;;;;10.45;5.28;;;23.90;31.70;;;;;;5048736;28;20045;-74
2023/04/23 10:41:27;;;;;;;8.85;6.13;;;23.90;32.30;;;;;;5049793;28;20044;-73
2023/04/23 10:43:55;;;;;;;8.25;4.10;;;24.10;31.80;;;;;;5050557;28;20048;-73
2023/04/23 10:46:29;;;;;;;8.52;6.32;;;24.20;30.70;;;;;;5062069;28;20041;-72
2023/04/23 10:49:13;;;;;;;9.35;4.03;;;24.40;31.20;;;;;;5065372;28;20148;-73
2023/04/23 10:51:42;;;;;;;8.57;4.88;;;24.40;30.50;;;;;;5029675;28;20053;-74
2023/04/23 10:54:11;;;;;;;8.05;3.78;;;24.30;30.00;;;;;;5040117;28;20053;-73
2023/04/23 10:56:40;;;;;;;6.53;3.55;;;23.90;29.90;;;;;;5028336;28;20049;-73
2023/04/23 10:59:09;;;;;;;5.55;2.97;;;23.90;29.60;;;;;;5028694;28;20041;-74
2023/04/23 11:01:36;;;;;;;5.88;4.00;;;23.90;30.00;;;;;;5009691;28;20390;-73
2023/04/23 11:04:23;;;;;;;7.57;4.28;;;23.90;30.00;;;;;;5042687;28;20045;-74
2023/04/23 11:06:53;;;;;;;8.00;5.05;;;24.00;31.00;;;;;;5029652;28;20069;-73
2023/04/23 11:09:32;;;;;;;6.88;3.60;;;24.10;30.60;;;;;;5030303;28;20049;-73
2023/04/23 11:12:02;;;;;;;10.98;6.43;;;24.20;29.90;;;;;;5041791;28;20049;-73
2023/04/23 11:14:38;;;;;;;6.88;3.58;;;24.10;29.70;;;;;;5028526;28;20053;-74
2023/04/23 11:17:06;;;;;;;5.90;3.55;;;24.10;29.60;;;;;;5028758;28;20049;-73
2023/04/23 11:19:36;;;;;;;5.70;3.78;;;24.10;29.70;;;;;;5046262;28;20389;-73
2023/04/23 11:22:07;;;;;;;8.55;3.75;;;24.20;29.50;;;;;;5048269;28;20053;-72
2023/04/23 11:24:40;;;;;;;5.53;3.22;;;24.10;29.00;;;;;;5051785;28;20123;-73
2023/04/23 11:27:11;;;;;;;5.40;4.00;;;24.10;29.00;;;;;;5032243;28;20489;-74
2023/04/23 11:29:39;;;;;;;6.80;3.20;;;24.20;28.50;;;;;;5026764;28;20064;-73
2023/04/23 11:32:09;;;;;;;5.55;3.10;;;24.20;27.80;;;;;;5026452;28;20057;-74
2023/04/23 11:34:39;;;;;;;6.38;4.03;;;24.30;27.60;;;;;;5027845;28;20037;-72
2023/04/23 11:37:09;;;;;;;4.70;3.00;;;24.40;27.70;;;;;;5042338;28;20174;-73
2023/04/23 11:39:37;;;;;;;9.27;4.63;;;24.40;27.30;;;;;;5047557;28;20104;-73
2023/04/23 11:42:05;;;;;;;12.43;8.07;;;24.40;28.30;;;;;;5047275;28;20052;-71
2023/04/23 11:44:34;;;;;;;16.38;9.02;;;24.50;28.40;;;;;;5047451;28;20119;-73
2023/04/23 11:47:02;;;;;;;7.47;4.85;;;24.70;28.10;;;;;;5028981;28;20049;-74
2023/04/23 11:49:29;;;;;;;8.48;6.15;;;24.70;28.20;;;;;;5046604;28;20085;-73
2023/04/23 11:52:00;;;;;;;5.30;3.88;;;24.80;28.30;;;;;;5048316;28;20163;-73
2023/04/23 11:54:28;;;;;;;6.20;4.43;;;24.90;29.00;;;;;;5047973;28;20041;-73
2023/04/23 11:56:58;;;;;;;8.10;4.40;;;24.90;28.70;;;;;;5030458;28;20589;-73
2023/04/23 11:59:26;;;;;;;10.70;4.90;;;24.80;28.30;;;;;;5049162;28;20086;-75
2023/04/23 12:01:57;;;;;;;6.68;3.30;;;24.90;28.70;;;;;;5053505;28;20374;-72
2023/04/23 12:04:26;;;;;;;7.55;3.45;;;24.90;27.90;;;;;;5033565;28;20118;-73
2023/04/23 12:06:56;;;;;;;7.25;3.50;;;24.90;28.30;;;;;;5035788;28;20053;-73
2023/04/23 12:09:25;;;;;;;6.95;4.15;;;24.80;28.80;;;;;;5037639;28;20051;-73
2023/04/23 12:11:53;;;;;;;6.68;3.80;;;24.70;29.50;;;;;;5046340;28;20096;-72
2023/04/23 12:14:27;;;;;;;6.85;3.88;;;24.70;29.00;;;;;;5030490;28;20124;-72
2023/04/23 12:16:56;;;;;;;6.40;3.65;;;24.30;28.70;;;;;;5031182;28;20401;-73
2023/04/23 12:19:28;;;;;;;6.10;3.50;;;24.00;29.00;;;;;;5048003;28;20053;-72
2023/04/23 12:21:57;;;;;;;9.00;3.83;;;23.90;29.20;;;;;;5050871;28;20416;-74
2023/04/23 12:24:25;;;;;;;8.63;3.78;;;24.00;29.80;;;;;;5050158;28;20484;-72
2023/04/23 12:26:55;;;;;;;7.40;4.22;;;24.10;29.60;;;;;;5051339;28;20116;-71
2023/04/23 12:29:23;;;;;;;7.90;4.07;;;24.20;30.30;;;;;;5049334;28;20041;-74
2023/04/23 12:31:52;;;;;;;10.65;4.50;;;24.40;30.70;;;;;;5032396;28;20045;-73
2023/04/23 12:34:22;;;;;;;6.07;3.45;;;24.50;31.20;;;;;;5050073;28;20041;-72
2023/04/23 12:36:51;;;;;;;7.53;4.85;;;24.50;29.20;;;;;;5050364;28;20033;-72
2023/04/23 12:39:29;;;;;;;6.78;4.45;;;24.50;29.00;;;;;;5050432;28;20041;-72
2023/04/23 12:42:01;;;;;;;8.18;4.35;;;24.50;29.90;;;;;;5033912;28;20481;-73
2023/04/23 12:44:29;;;;;;;7.65;4.05;;;24.30;29.50;;;;;;5050625;28;20045;-71
2023/04/23 12:46:57;;;;;;;7.60;3.70;;;24.20;29.90;;;;;;5051188;28;20037;-73